sensor_id;sensor_type;location;lat;lon;timestamp;P1;durP1;ratioP1;P2;durP2;ratioP2
36745;SDS011;22715;52.182;21.206;2023-02-28T00:01:28;18.00;;;9.85;;
36745;SDS011;22715;52.182;21.206;2023-02-28T00:03:53;18.23;;;9.77;;
36745;SDS011;22715;52.182;21.206;2023-02-28T00:06:18;18.17;;;9.35;;
36745;SDS011;22715;52.182;21.206;2023-02-28T00:08:44;12.48;;;7.78;;
36745;SDS011;22715;52.182;21.206;2023-02-28T00:11:10;18.58;;;7.85;;
36745;SDS011;22715;52.182;21.206;2023-02-28T00:13:36;16.25;;;8.98;;
36745;SDS011;22715;52.182;21.206;2023-02-28T00:16:09;18.58;;;7.97;;
36745;SDS011;22715;52.182;21.206;2023-02-28T00:18:35;18.38;;;9.68;;
36745;SDS011;22715;52.182;21.206;2023-02-28T00:21:03;13.93;;;7.28;;
36745;SDS011;22715;52.182;21.206;2023-02-28T00:23:29;20.33;;;9.68;;
36745;SDS011;22715;52.182;21.206;2023-02-28T00:25:54;14.77;;;7.47;;
36745;SDS011;22715;52.182;21.206;2023-02-28T00:28:19;14.05;;;9.13;;
36745;SDS011;22715;52.182;21.206;2023-02-28T00:30:45;14.02;;;8.05;;
36745;SDS011;22715;52.182;21.206;2023-02-28T00:33:10;16.25;;;8.68;;
36745;SDS011;22715;52.182;21.206;2023-02-28T00:35:35;19.90;;;8.27;;
36745;SDS011;22715;52.182;21.206;2023-02-28T00:38:01;15.73;;;8.40;;
36745;SDS011;22715;52.182;21.206;2023-02-28T00:40:26;16.20;;;8.45;;
36745;SDS011;22715;52.182;21.206;2023-02-28T00:42:51;15.73;;;8.85;;
36745;SDS011;22715;52.182;21.206;2023-02-28T00:45:17;18.70;;;8.55;;
36745;SDS011;22715;52.182;21.206;2023-02-28T00:47:42;18.30;;;8.15;;
36745;SDS011;22715;52.182;21.206;2023-02-28T00:50:07;15.30;;;10.60;;
36745;SDS011;22715;52.182;21.206;2023-02-28T00:52:33;19.45;;;9.60;;
36745;SDS011;22715;52.182;21.206;2023-02-28T00:54:58;20.13;;;7.93;;
36745;SDS011;22715;52.182;21.206;2023-02-28T00:57:24;14.75;;;8.00;;
36745;SDS011;22715;52.182;21.206;2023-02-28T00:59:49;10.95;;;7.18;;
36745;SDS011;22715;52.182;21.206;2023-02-28T01:02:14;20.95;;;9.02;;
36745;SDS011;22715;52.182;21.206;2023-02-28T01:04:40;16.75;;;8.73;;
36745;SDS011;22715;52.182;21.206;2023-02-28T01:07:05;16.00;;;9.07;;
36745;SDS011;22715;52.182;21.206;2023-02-28T01:09:30;15.95;;;7.85;;
36745;SDS011;22715;52.182;21.206;2023-02-28T01:11:55;9.95;;;6.70;;
36745;SDS011;22715;52.182;21.206;2023-02-28T01:14:21;11.90;;;7.82;;
36745;SDS011;22715;52.182;21.206;2023-02-28T01:16:46;14.52;;;8.95;;
36745;SDS011;22715;52.182;21.206;2023-02-28T01:19:11;12.88;;;9.40;;
36745;SDS011;22715;52.182;21.206;2023-02-28T01:21:36;15.05;;;8.77;;
36745;SDS011;22715;52.182;21.206;2023-02-28T01:24:05;21.95;;;9.63;;
36745;SDS011;22715;52.182;21.206;2023-02-28T01:26:30;24.17;;;9.88;;
36745;SDS011;22715;52.182;21.206;2023-02-28T01:28:56;11.95;;;8.38;;
36745;SDS011;22715;52.182;21.206;2023-02-28T01:31:21;21.73;;;9.25;;
36745;SDS011;22715;52.182;21.206;2023-02-28T01:33:47;18.50;;;8.25;;
36745;SDS011;22715;52.182;21.206;2023-02-28T01:36:13;20.90;;;10.27;;
36745;SDS011;22715;52.182;21.206;2023-02-28T01:38:39;19.20;;;9.20;;
36745;SDS011;22715;52.182;21.206;2023-02-28T01:41:04;20.08;;;10.05;;
36745;SDS011;22715;52.182;21.206;2023-02-28T01:46:07;17.58;;;9.80;;
36745;SDS011;22715;52.182;21.206;2023-02-28T01:48:34;16.80;;;11.30;;
36745;SDS011;22715;52.182;21.206;2023-02-28T01:51:05;16.40;;;8.30;;
36745;SDS011;22715;52.182;21.206;2023-02-28T01:53:33;15.32;;;8.85;;
36745;SDS011;22715;52.182;21.206;2023-02-28T01:55:59;25.90;;;11.02;;
36745;SDS011;22715;52.182;21.206;2023-02-28T01:58:24;18.00;;;9.40;;
36745;SDS011;22715;52.182;21.206;2023-02-28T02:00:50;15.30;;;9.25;;
36745;SDS011;22715;52.182;21.206;2023-02-28T02:03:16;14.98;;;10.48;;
36745;SDS011;22715;52.182;21.206;2023-02-28T02:05:44;17.48;;;9.23;;
36745;SDS011;22715;52.182;21.206;2023-02-28T02:08:12;18.70;;;10.18;;
36745;SDS011;22715;52.182;21.206;2023-02-28T02:10:45;12.23;;;8.10;;
36745;SDS011;22715;52.182;21.206;2023-02-28T02:15:47;22.00;;;10.85;;
36745;SDS011;22715;52.182;21.206;2023-02-28T02:18:30;18.88;;;8.68;;
36745;SDS011;22715;52.182;21.206;2023-02-28T02:21:03;14.55;;;8.60;;
36745;SDS011;22715;52.182;21.206;2023-02-28T02:29:13;19.70;;;10.70;;
36745;SDS011;22715;52.182;21.206;2023-02-28T02:34:31;18.15;;;9.15;;
36745;SDS011;22715;52.182;21.206;2023-02-28T02:37:08;26.70;;;10.95;;
36745;SDS011;22715;52.182;21.206;2023-02-28T02:42:04;21.75;;;10.55;;
36745;SDS011;22715;52.182;21.206;2023-02-28T02:47:30;20.90;;;10.02;;
36745;SDS011;22715;52.182;21.206;2023-02-28T02:49:57;15.23;;;9.13;;
36745;SDS011;22715;52.182;21.206;2023-02-28T02:52:24;17.63;;;11.05;;
36745;SDS011;22715;52.182;21.206;2023-02-28T02:54:54;18.05;;;9.90;;
36745;SDS011;22715;52.182;21.206;2023-02-28T02:57:25;17.63;;;9.88;;
36745;SDS011;22715;52.182;21.206;2023-02-28T02:59:51;17.50;;;10.82;;
36745;SDS011;22715;52.182;21.206;2023-02-28T03:02:18;22.45;;;10.35;;
36745;SDS011;22715;52.182;21.206;2023-02-28T03:04:53;14.57;;;9.90;;
36745;SDS011;22715;52.182;21.206;2023-02-28T03:07:25;14.88;;;8.95;;
36745;SDS011;22715;52.182;21.206;2023-02-28T03:09:51;18.17;;;9.43;;
36745;SDS011;22715;52.182;21.206;2023-02-28T03:12:17;21.00;;;9.65;;
36745;SDS011;22715;52.182;21.206;2023-02-28T03:15:07;19.73;;;10.27;;
36745;SDS011;22715;52.182;21.206;2023-02-28T03:20:17;18.27;;;8.13;;
36745;SDS011;22715;52.182;21.206;2023-02-28T03:35:43;20.95;;;8.57;;
36745;SDS011;22715;52.182;21.206;2023-02-28T03:43:55;16.48;;;10.65;;
36745;SDS011;22715;52.182;21.206;2023-02-28T03:46:22;15.98;;;9.23;;
36745;SDS011;22715;52.182;21.206;2023-02-28T03:48:51;16.50;;;8.73;;
36745;SDS011;22715;52.182;21.206;2023-02-28T03:51:18;17.80;;;8.98;;
36745;SDS011;22715;52.182;21.206;2023-02-28T03:53:56;14.18;;;8.07;;
36745;SDS011;22715;52.182;21.206;2023-02-28T03:59:22;12.07;;;6.90;;
36745;SDS011;22715;52.182;21.206;2023-02-28T04:01:48;13.68;;;7.75;;
36745;SDS011;22715;52.182;21.206;2023-02-28T04:04:14;16.52;;;7.20;;
36745;SDS011;22715;52.182;21.206;2023-02-28T04:06:40;12.98;;;8.15;;
36745;SDS011;22715;52.182;21.206;2023-02-28T04:09:07;13.50;;;6.70;;
36745;SDS011;22715;52.182;21.206;2023-02-28T04:11:38;18.55;;;7.80;;
36745;SDS011;22715;52.182;21.206;2023-02-28T04:14:04;17.98;;;9.80;;
36745;SDS011;22715;52.182;21.206;2023-02-28T04:16:30;14.55;;;8.32;;
36745;SDS011;22715;52.182;21.206;2023-02-28T04:18:56;16.65;;;7.97;;
36745;SDS011;22715;52.182;21.206;2023-02-28T04:21:31;14.90;;;9.07;;
36745;SDS011;22715;52.182;21.206;2023-02-28T04:23:57;10.52;;;7.85;;
36745;SDS011;22715;52.182;21.206;2023-02-28T04:26:25;12.35;;;6.32;;
36745;SDS011;22715;52.182;21.206;2023-02-28T04:28:53;14.15;;;8.05;;
36745;SDS011;22715;52.182;21.206;2023-02-28T04:31:18;9.07;;;7.10;;
36745;SDS011;22715;52.182;21.206;2023-02-28T04:33:43;14.35;;;8.45;;
36745;SDS011;22715;52.182;21.206;2023-02-28T04:36:09;12.38;;;7.22;;
36745;SDS011;22715;52.182;21.206;2023-02-28T04:38:35;15.55;;;6.85;;
36745;SDS011;22715;52.182;21.206;2023-02-28T04:41:04;14.30;;;7.40;;
36745;SDS011;22715;52.182;21.206;2023-02-28T04:43:33;16.63;;;9.18;;
36745;SDS011;22715;52.182;21.206;2023-02-28T04:46:00;17.85;;;8.80;;
36745;SDS011;22715;52.182;21.206;2023-02-28T04:48:27;16.73;;;9.00;;
36745;SDS011;22715;52.182;21.206;2023-02-28T04:50:52;17.90;;;9.43;;
36745;SDS011;22715;52.182;21.206;2023-02-28T04:53:18;12.15;;;7.97;;
36745;SDS011;22715;52.182;21.206;2023-02-28T04:55:44;23.25;;;9.70;;
36745;SDS011;22715;52.182;21.206;2023-02-28T04:58:09;22.50;;;10.13;;
36745;SDS011;22715;52.182;21.206;2023-02-28T05:00:34;18.00;;;8.52;;
36745;SDS011;22715;52.182;21.206;2023-02-28T05:03:00;12.30;;;8.13;;
36745;SDS011;22715;52.182;21.206;2023-02-28T05:05:28;13.88;;;8.05;;
36745;SDS011;22715;52.182;21.206;2023-02-28T05:07:54;16.88;;;8.25;;
36745;SDS011;22715;52.182;21.206;2023-02-28T05:10:20;20.20;;;8.07;;
36745;SDS011;22715;52.182;21.206;2023-02-28T05:12:45;13.02;;;7.82;;
36745;SDS011;22715;52.182;21.206;2023-02-28T05:15:12;16.92;;;8.43;;
36745;SDS011;22715;52.182;21.206;2023-02-28T05:17:38;17.52;;;8.02;;
36745;SDS011;22715;52.182;21.206;2023-02-28T05:20:03;17.13;;;9.15;;
36745;SDS011;22715;52.182;21.206;2023-02-28T05:22:29;17.15;;;8.80;;
36745;SDS011;22715;52.182;21.206;2023-02-28T05:24:55;15.65;;;10.05;;
36745;SDS011;22715;52.182;21.206;2023-02-28T05:27:21;14.60;;;8.30;;
36745;SDS011;22715;52.182;21.206;2023-02-28T05:29:48;11.95;;;9.38;;
36745;SDS011;22715;52.182;21.206;2023-02-28T05:32:14;23.13;;;10.57;;
36745;SDS011;22715;52.182;21.206;2023-02-28T05:34:41;17.63;;;10.25;;
36745;SDS011;22715;52.182;21.206;2023-02-28T05:37:16;13.32;;;7.90;;
36745;SDS011;22715;52.182;21.206;2023-02-28T05:39:42;16.15;;;9.20;;
36745;SDS011;22715;52.182;21.206;2023-02-28T05:42:10;14.43;;;8.10;;
36745;SDS011;22715;52.182;21.206;2023-02-28T05:44:35;17.55;;;9.40;;
36745;SDS011;22715;52.182;21.206;2023-02-28T05:47:01;17.20;;;9.23;;
36745;SDS011;22715;52.182;21.206;2023-02-28T05:49:26;18.45;;;9.63;;
36745;SDS011;22715;52.182;21.206;2023-02-28T05:51:51;17.77;;;8.77;;
36745;SDS011;22715;52.182;21.206;2023-02-28T05:54:18;12.75;;;9.57;;
36745;SDS011;22715;52.182;21.206;2023-02-28T05:56:43;17.48;;;11.20;;
36745;SDS011;22715;52.182;21.206;2023-02-28T05:59:12;11.82;;;8.77;;
36745;SDS011;22715;52.182;21.206;2023-02-28T06:01:38;16.65;;;10.55;;
36745;SDS011;22715;52.182;21.206;2023-02-28T06:04:05;14.23;;;8.98;;
36745;SDS011;22715;52.182;21.206;2023-02-28T06:06:31;17.73;;;10.13;;
36745;SDS011;22715;52.182;21.206;2023-02-28T06:08:56;20.02;;;11.27;;
36745;SDS011;22715;52.182;21.206;2023-02-28T06:11:22;18.73;;;12.02;;
36745;SDS011;22715;52.182;21.206;2023-02-28T06:13:52;14.67;;;8.03;;
36745;SDS011;22715;52.182;21.206;2023-02-28T06:16:18;23.35;;;11.73;;
36745;SDS011;22715;52.182;21.206;2023-02-28T06:18:43;28.70;;;11.57;;
36745;SDS011;22715;52.182;21.206;2023-02-28T06:21:08;20.95;;;10.75;;
36745;SDS011;22715;52.182;21.206;2023-02-28T06:23:34;17.23;;;9.70;;
36745;SDS011;22715;52.182;21.206;2023-02-28T06:25:59;25.65;;;12.15;;
36745;SDS011;22715;52.182;21.206;2023-02-28T06:28:24;17.92;;;10.55;;
36745;SDS011;22715;52.182;21.206;2023-02-28T06:30:50;22.10;;;11.60;;
36745;SDS011;22715;52.182;21.206;2023-02-28T06:33:15;17.75;;;10.73;;
36745;SDS011;22715;52.182;21.206;2023-02-28T06:35:43;23.02;;;10.85;;
36745;SDS011;22715;52.182;21.206;2023-02-28T06:38:08;22.42;;;10.90;;
36745;SDS011;22715;52.182;21.206;2023-02-28T06:40:34;16.65;;;9.48;;
36745;SDS011;22715;52.182;21.206;2023-02-28T06:43:00;19.08;;;11.35;;
36745;SDS011;22715;52.182;21.206;2023-02-28T06:45:26;16.95;;;10.13;;
36745;SDS011;22715;52.182;21.206;2023-02-28T06:47:51;17.25;;;9.90;;
36745;SDS011;22715;52.182;21.206;2023-02-28T06:50:17;19.42;;;11.10;;
36745;SDS011;22715;52.182;21.206;2023-02-28T06:52:45;23.58;;;10.98;;
36745;SDS011;22715;52.182;21.206;2023-02-28T06:55:10;24.75;;;11.45;;
36745;SDS011;22715;52.182;21.206;2023-02-28T06:57:35;19.02;;;10.07;;
36745;SDS011;22715;52.182;21.206;2023-02-28T07:00:02;19.88;;;11.48;;
36745;SDS011;22715;52.182;21.206;2023-02-28T07:02:28;25.70;;;11.90;;
36745;SDS011;22715;52.182;21.206;2023-02-28T07:04:55;19.65;;;10.15;;
36745;SDS011;22715;52.182;21.206;2023-02-28T07:07:20;19.60;;;10.88;;
36745;SDS011;22715;52.182;21.206;2023-02-28T07:09:45;17.15;;;10.27;;
36745;SDS011;22715;52.182;21.206;2023-02-28T07:12:11;20.67;;;10.60;;
36745;SDS011;22715;52.182;21.206;2023-02-28T07:14:36;25.85;;;11.77;;
36745;SDS011;22715;52.182;21.206;2023-02-28T07:17:01;20.50;;;11.10;;
36745;SDS011;22715;52.182;21.206;2023-02-28T07:19:27;21.00;;;11.23;;
36745;SDS011;22715;52.182;21.206;2023-02-28T07:21:52;17.08;;;10.18;;
36745;SDS011;22715;52.182;21.206;2023-02-28T07:24:18;21.30;;;11.20;;
36745;SDS011;22715;52.182;21.206;2023-02-28T07:26:43;12.40;;;7.20;;
36745;SDS011;22715;52.182;21.206;2023-02-28T07:29:09;21.15;;;9.90;;
36745;SDS011;22715;52.182;21.206;2023-02-28T07:31:34;17.25;;;9.82;;
36745;SDS011;22715;52.182;21.206;2023-02-28T07:34:00;19.17;;;9.45;;
36745;SDS011;22715;52.182;21.206;2023-02-28T07:36:27;13.82;;;7.63;;
36745;SDS011;22715;52.182;21.206;2023-02-28T07:38:53;13.43;;;9.57;;
36745;SDS011;22715;52.182;21.206;2023-02-28T07:41:19;19.02;;;9.02;;
36745;SDS011;22715;52.182;21.206;2023-02-28T07:46:38;9.23;;;6.70;;
36745;SDS011;22715;52.182;21.206;2023-02-28T07:49:04;12.68;;;7.38;;
36745;SDS011;22715;52.182;21.206;2023-02-28T07:51:29;8.85;;;6.00;;
36745;SDS011;22715;52.182;21.206;2023-02-28T07:53:55;5.63;;;4.90;;
36745;SDS011;22715;52.182;21.206;2023-02-28T07:56:21;7.43;;;4.80;;
36745;SDS011;22715;52.182;21.206;2023-02-28T07:58:46;4.65;;;3.92;;
36745;SDS011;22715;52.182;21.206;2023-02-28T08:01:12;8.45;;;5.35;;
36745;SDS011;22715;52.182;21.206;2023-02-28T08:03:38;8.52;;;5.10;;
36745;SDS011;22715;52.182;21.206;2023-02-28T08:06:04;8.85;;;5.90;;
36745;SDS011;22715;52.182;21.206;2023-02-28T08:08:29;6.68;;;4.85;;
36745;SDS011;22715;52.182;21.206;2023-02-28T08:10:57;6.07;;;3.90;;
36745;SDS011;22715;52.182;21.206;2023-02-28T08:13:23;7.03;;;3.78;;
36745;SDS011;22715;52.182;21.206;2023-02-28T08:15:49;5.60;;;3.53;;
36745;SDS011;22715;52.182;21.206;2023-02-28T08:18:14;6.47;;;5.18;;
36745;SDS011;22715;52.182;21.206;2023-02-28T08:20:39;8.30;;;4.97;;
36745;SDS011;22715;52.182;21.206;2023-02-28T08:23:04;5.60;;;4.15;;
36745;SDS011;22715;52.182;21.206;2023-02-28T08:25:30;8.90;;;5.18;;
36745;SDS011;22715;52.182;21.206;2023-02-28T08:27:55;7.55;;;4.72;;
36745;SDS011;22715;52.182;21.206;2023-02-28T08:30:21;7.00;;;4.90;;
36745;SDS011;22715;52.182;21.206;2023-02-28T08:32:46;7.43;;;4.93;;
36745;SDS011;22715;52.182;21.206;2023-02-28T08:35:11;6.95;;;4.10;;
36745;SDS011;22715;52.182;21.206;2023-02-28T08:37:36;9.00;;;4.32;;
36745;SDS011;22715;52.182;21.206;2023-02-28T08:40:05;6.70;;;4.10;;
36745;SDS011;22715;52.182;21.206;2023-02-28T08:42:31;7.40;;;4.55;;
36745;SDS011;22715;52.182;21.206;2023-02-28T08:44:56;8.68;;;4.65;;
36745;SDS011;22715;52.182;21.206;2023-02-28T08:47:22;9.75;;;5.43;;
36745;SDS011;22715;52.182;21.206;2023-02-28T08:49:47;10.65;;;5.03;;
36745;SDS011;22715;52.182;21.206;2023-02-28T08:52:12;7.47;;;4.65;;
36745;SDS011;22715;52.182;21.206;2023-02-28T08:54:38;8.00;;;5.07;;
36745;SDS011;22715;52.182;21.206;2023-02-28T08:57:03;9.70;;;5.95;;
36745;SDS011;22715;52.182;21.206;2023-02-28T08:59:29;6.93;;;4.13;;
36745;SDS011;22715;52.182;21.206;2023-02-28T09:01:54;6.88;;;4.28;;
36745;SDS011;22715;52.182;21.206;2023-02-28T09:04:19;10.98;;;4.63;;
36745;SDS011;22715;52.182;21.206;2023-02-28T09:06:44;11.27;;;5.63;;
36745;SDS011;22715;52.182;21.206;2023-02-28T09:09:10;11.32;;;5.53;;
36745;SDS011;22715;52.182;21.206;2023-02-28T09:11:35;8.85;;;5.55;;
36745;SDS011;22715;52.182;21.206;2023-02-28T09:14:01;10.90;;;7.15;;
36745;SDS011;22715;52.182;21.206;2023-02-28T09:16:28;7.45;;;5.05;;
36745;SDS011;22715;52.182;21.206;2023-02-28T09:18:53;8.52;;;5.55;;
36745;SDS011;22715;52.182;21.206;2023-02-28T09:21:19;8.50;;;5.87;;
36745;SDS011;22715;52.182;21.206;2023-02-28T09:23:45;7.05;;;4.95;;
36745;SDS011;22715;52.182;21.206;2023-02-28T09:26:43;8.63;;;4.93;;
36745;SDS011;22715;52.182;21.206;2023-02-28T09:29:02;7.93;;;5.20;;
36745;SDS011;22715;52.182;21.206;2023-02-28T09:31:28;8.50;;;5.70;;
36745;SDS011;22715;52.182;21.206;2023-02-28T09:33:55;7.80;;;5.15;;
36745;SDS011;22715;52.182;21.206;2023-02-28T09:36:20;6.40;;;4.65;;
36745;SDS011;22715;52.182;21.206;2023-02-28T09:38:45;9.50;;;6.22;;
36745;SDS011;22715;52.182;21.206;2023-02-28T09:41:19;8.43;;;5.25;;
36745;SDS011;22715;52.182;21.206;2023-02-28T09:43:49;9.20;;;5.60;;
36745;SDS011;22715;52.182;21.206;2023-02-28T09:48:53;8.35;;;5.13;;
36745;SDS011;22715;52.182;21.206;2023-02-28T09:51:30;9.10;;;5.82;;
36745;SDS011;22715;52.182;21.206;2023-02-28T09:53:58;9.90;;;5.55;;
36745;SDS011;22715;52.182;21.206;2023-02-28T09:56:24;9.38;;;5.25;;
36745;SDS011;22715;52.182;21.206;2023-02-28T10:02:20;9.88;;;5.47;;
36745;SDS011;22715;52.182;21.206;2023-02-28T10:06:52;8.27;;;6.40;;
36745;SDS011;22715;52.182;21.206;2023-02-28T10:09:22;7.82;;;5.40;;
36745;SDS011;22715;52.182;21.206;2023-02-28T10:11:50;10.48;;;6.05;;
36745;SDS011;22715;52.182;21.206;2023-02-28T10:14:21;9.18;;;5.50;;
36745;SDS011;22715;52.182;21.206;2023-02-28T10:16:51;6.82;;;5.45;;
36745;SDS011;22715;52.182;21.206;2023-02-28T10:21:50;8.68;;;5.15;;
36745;SDS011;22715;52.182;21.206;2023-02-28T10:24:29;9.70;;;5.22;;
36745;SDS011;22715;52.182;21.206;2023-02-28T10:27:06;8.02;;;6.18;;
36745;SDS011;22715;52.182;21.206;2023-02-28T10:29:43;9.23;;;5.45;;
36745;SDS011;22715;52.182;21.206;2023-02-28T10:32:08;10.13;;;6.80;;
36745;SDS011;22715;52.182;21.206;2023-02-28T10:34:33;14.00;;;6.63;;
36745;SDS011;22715;52.182;21.206;2023-02-28T10:36:59;10.70;;;5.97;;
36745;SDS011;22715;52.182;21.206;2023-02-28T10:40:05;8.95;;;5.35;;
36745;SDS011;22715;52.182;21.206;2023-02-28T10:42:26;10.38;;;6.13;;
36745;SDS011;22715;52.182;21.206;2023-02-28T10:45:05;8.65;;;5.88;;
36745;SDS011;22715;52.182;21.206;2023-02-28T10:47:31;7.18;;;5.40;;
36745;SDS011;22715;52.182;21.206;2023-02-28T10:49:58;8.30;;;5.35;;
36745;SDS011;22715;52.182;21.206;2023-02-28T10:52:33;10.60;;;5.60;;
36745;SDS011;22715;52.182;21.206;2023-02-28T10:55:15;9.18;;;5.70;;
36745;SDS011;22715;52.182;21.206;2023-02-28T10:57:44;6.20;;;4.72;;
36745;SDS011;22715;52.182;21.206;2023-02-28T11:00:18;8.05;;;5.70;;
36745;SDS011;22715;52.182;21.206;2023-02-28T11:02:44;7.75;;;5.15;;
36745;SDS011;22715;52.182;21.206;2023-02-28T11:05:24;6.40;;;5.32;;
36745;SDS011;22715;52.182;21.206;2023-02-28T11:08:23;11.32;;;6.65;;
36745;SDS011;22715;52.182;21.206;2023-02-28T11:10:52;14.00;;;7.35;;
36745;SDS011;22715;52.182;21.206;2023-02-28T11:13:19;10.57;;;6.95;;
36745;SDS011;22715;52.182;21.206;2023-02-28T11:18:53;7.70;;;5.95;;
36745;SDS011;22715;52.182;21.206;2023-02-28T11:21:20;10.10;;;5.95;;
36745;SDS011;22715;52.182;21.206;2023-02-28T11:23:46;8.38;;;5.88;;
36745;SDS011;22715;52.182;21.206;2023-02-28T11:26:12;9.25;;;6.78;;
36745;SDS011;22715;52.182;21.206;2023-02-28T11:28:39;10.48;;;7.75;;
36745;SDS011;22715;52.182;21.206;2023-02-28T11:31:06;12.85;;;7.70;;
36745;SDS011;22715;52.182;21.206;2023-02-28T11:36:09;11.77;;;7.90;;
36745;SDS011;22715;52.182;21.206;2023-02-28T11:38:35;8.70;;;7.25;;
36745;SDS011;22715;52.182;21.206;2023-02-28T11:51:46;11.50;;;7.25;;
36745;SDS011;22715;52.182;21.206;2023-02-28T11:57:15;9.00;;;6.72;;
36745;SDS011;22715;52.182;21.206;2023-02-28T11:59:57;9.00;;;5.75;;
36745;SDS011;22715;52.182;21.206;2023-02-28T12:02:28;11.32;;;6.75;;
36745;SDS011;22715;52.182;21.206;2023-02-28T12:05:29;11.20;;;7.00;;
36745;SDS011;22715;52.182;21.206;2023-02-28T12:07:49;13.52;;;8.07;;
36745;SDS011;22715;52.182;21.206;2023-02-28T12:13:06;9.77;;;6.43;;
36745;SDS011;22715;52.182;21.206;2023-02-28T12:27:52;10.02;;;7.70;;
36745;SDS011;22715;52.182;21.206;2023-02-28T12:30:33;9.15;;;7.63;;
36745;SDS011;22715;52.182;21.206;2023-02-28T12:35:37;9.38;;;7.15;;
36745;SDS011;22715;52.182;21.206;2023-02-28T12:38:09;11.68;;;7.47;;
36745;SDS011;22715;52.182;21.206;2023-02-28T12:40:42;9.95;;;6.55;;
36745;SDS011;22715;52.182;21.206;2023-02-28T12:43:08;8.57;;;6.55;;
36745;SDS011;22715;52.182;21.206;2023-02-28T12:45:48;8.77;;;6.35;;
36745;SDS011;22715;52.182;21.206;2023-02-28T12:48:16;12.80;;;7.50;;
36745;SDS011;22715;52.182;21.206;2023-02-28T12:50:44;12.32;;;6.70;;
36745;SDS011;22715;52.182;21.206;2023-02-28T12:53:13;15.32;;;8.18;;
36745;SDS011;22715;52.182;21.206;2023-02-28T13:00:45;18.17;;;8.63;;
36745;SDS011;22715;52.182;21.206;2023-02-28T13:03:55;19.50;;;8.18;;
36745;SDS011;22715;52.182;21.206;2023-02-28T13:11:01;12.98;;;8.52;;
36745;SDS011;22715;52.182;21.206;2023-02-28T13:13:27;18.13;;;7.35;;
36745;SDS011;22715;52.182;21.206;2023-02-28T13:16:10;15.63;;;7.97;;
36745;SDS011;22715;52.182;21.206;2023-02-28T13:21:07;10.13;;;6.40;;
36745;SDS011;22715;52.182;21.206;2023-02-28T13:23:41;12.60;;;8.73;;
36745;SDS011;22715;52.182;21.206;2023-02-28T13:28:57;11.40;;;6.97;;
36745;SDS011;22715;52.182;21.206;2023-02-28T13:31:23;12.02;;;8.05;;
36745;SDS011;22715;52.182;21.206;2023-02-28T13:38:46;40.50;;;9.52;;
36745;SDS011;22715;52.182;21.206;2023-02-28T13:46:35;12.73;;;8.35;;
36745;SDS011;22715;52.182;21.206;2023-02-28T13:51:48;11.70;;;8.15;;
36745;SDS011;22715;52.182;21.206;2023-02-28T13:56:50;10.68;;;7.10;;
36745;SDS011;22715;52.182;21.206;2023-02-28T14:01:49;13.05;;;7.38;;
36745;SDS011;22715;52.182;21.206;2023-02-28T14:04:25;21.10;;;9.35;;
36745;SDS011;22715;52.182;21.206;2023-02-28T14:06:57;10.75;;;7.07;;
36745;SDS011;22715;52.182;21.206;2023-02-28T14:11:55;11.55;;;7.38;;
36745;SDS011;22715;52.182;21.206;2023-02-28T14:19:27;19.80;;;8.65;;
36745;SDS011;22715;52.182;21.206;2023-02-28T14:22:01;15.65;;;8.07;;
36745;SDS011;22715;52.182;21.206;2023-02-28T14:32:26;12.00;;;8.80;;
36745;SDS011;22715;52.182;21.206;2023-02-28T14:37:16;12.55;;;8.18;;
36745;SDS011;22715;52.182;21.206;2023-02-28T14:39:44;11.75;;;8.27;;
36745;SDS011;22715;52.182;21.206;2023-02-28T14:42:27;13.25;;;7.20;;
36745;SDS011;22715;52.182;21.206;2023-02-28T14:44:56;16.95;;;9.35;;
36745;SDS011;22715;52.182;21.206;2023-02-28T14:47:21;12.50;;;7.57;;
36745;SDS011;22715;52.182;21.206;2023-02-28T14:49:48;12.93;;;8.00;;
36745;SDS011;22715;52.182;21.206;2023-02-28T14:52:19;12.15;;;7.30;;
36745;SDS011;22715;52.182;21.206;2023-02-28T14:54:45;11.05;;;7.88;;
36745;SDS011;22715;52.182;21.206;2023-02-28T14:57:20;12.20;;;8.60;;
36745;SDS011;22715;52.182;21.206;2023-02-28T14:59:56;14.38;;;7.78;;
36745;SDS011;22715;52.182;21.206;2023-02-28T15:02:23;9.40;;;6.90;;
36745;SDS011;22715;52.182;21.206;2023-02-28T15:04:52;13.07;;;7.35;;
36745;SDS011;22715;52.182;21.206;2023-02-28T15:07:20;23.73;;;10.32;;
36745;SDS011;22715;52.182;21.206;2023-02-28T15:10:09;14.30;;;7.25;;
36745;SDS011;22715;52.182;21.206;2023-02-28T15:12:35;11.20;;;8.38;;
36745;SDS011;22715;52.182;21.206;2023-02-28T15:15:01;13.13;;;7.85;;
36745;SDS011;22715;52.182;21.206;2023-02-28T15:17:26;13.23;;;7.65;;
36745;SDS011;22715;52.182;21.206;2023-02-28T15:19:52;14.48;;;6.78;;
36745;SDS011;22715;52.182;21.206;2023-02-28T15:22:19;12.43;;;8.07;;
36745;SDS011;22715;52.182;21.206;2023-02-28T15:24:49;11.52;;;6.93;;
36745;SDS011;22715;52.182;21.206;2023-02-28T15:27:18;13.45;;;7.82;;
36745;SDS011;22715;52.182;21.206;2023-02-28T15:29:47;14.65;;;7.40;;
36745;SDS011;22715;52.182;21.206;2023-02-28T15:32:29;13.43;;;8.05;;
36745;SDS011;22715;52.182;21.206;2023-02-28T15:34:55;11.57;;;6.40;;
36745;SDS011;22715;52.182;21.206;2023-02-28T15:39:56;9.27;;;6.88;;
36745;SDS011;22715;52.182;21.206;2023-02-28T15:42:23;12.63;;;7.38;;
36745;SDS011;22715;52.182;21.206;2023-02-28T15:44:52;16.05;;;8.07;;
36745;SDS011;22715;52.182;21.206;2023-02-28T15:47:18;11.20;;;7.03;;
36745;SDS011;22715;52.182;21.206;2023-02-28T15:49:47;9.00;;;6.32;;
36745;SDS011;22715;52.182;21.206;2023-02-28T15:58:19;12.18;;;8.43;;
36745;SDS011;22715;52.182;21.206;2023-02-28T16:00:59;13.65;;;7.40;;
36745;SDS011;22715;52.182;21.206;2023-02-28T16:03:25;13.05;;;7.72;;
36745;SDS011;22715;52.182;21.206;2023-02-28T16:06:17;14.52;;;9.05;;
36745;SDS011;22715;52.182;21.206;2023-02-28T16:08:45;12.60;;;7.78;;
36745;SDS011;22715;52.182;21.206;2023-02-28T16:11:10;14.30;;;7.72;;
36745;SDS011;22715;52.182;21.206;2023-02-28T16:13:36;18.60;;;9.30;;
36745;SDS011;22715;52.182;21.206;2023-02-28T16:16:04;20.25;;;11.27;;
36745;SDS011;22715;52.182;21.206;2023-02-28T16:18:36;21.60;;;11.85;;
36745;SDS011;22715;52.182;21.206;2023-02-28T16:21:01;21.17;;;10.63;;
36745;SDS011;22715;52.182;21.206;2023-02-28T16:23:26;16.52;;;10.82;;
36745;SDS011;22715;52.182;21.206;2023-02-28T16:25:51;24.90;;;13.07;;
36745;SDS011;22715;52.182;21.206;2023-02-28T16:28:20;25.35;;;11.52;;
36745;SDS011;22715;52.182;21.206;2023-02-28T16:30:50;22.35;;;11.73;;
36745;SDS011;22715;52.182;21.206;2023-02-28T16:33:16;20.27;;;10.50;;
36745;SDS011;22715;52.182;21.206;2023-02-28T16:35:41;18.90;;;9.48;;
36745;SDS011;22715;52.182;21.206;2023-02-28T16:38:06;21.73;;;13.00;;
36745;SDS011;22715;52.182;21.206;2023-02-28T16:40:33;19.17;;;11.07;;
36745;SDS011;22715;52.182;21.206;2023-02-28T16:42:58;19.65;;;9.68;;
36745;SDS011;22715;52.182;21.206;2023-02-28T16:45:25;17.95;;;10.98;;
36745;SDS011;22715;52.182;21.206;2023-02-28T16:47:50;25.38;;;10.23;;
36745;SDS011;22715;52.182;21.206;2023-02-28T16:50:17;17.80;;;9.43;;
36745;SDS011;22715;52.182;21.206;2023-02-28T16:52:42;15.07;;;9.38;;
36745;SDS011;22715;52.182;21.206;2023-02-28T16:55:08;20.30;;;10.60;;
36745;SDS011;22715;52.182;21.206;2023-02-28T16:57:33;18.42;;;8.90;;
36745;SDS011;22715;52.182;21.206;2023-02-28T16:59:58;13.15;;;8.70;;